sensor_id;sensor_type;location;lat;lon;timestamp;P1;durP1;ratioP1;P2;durP2;ratioP2
76962;SDS011;65902;51.452;7.198;2023-08-17T14:43:45;21.20;;;14.70;;
76962;SDS011;65902;51.452;7.198;2023-08-17T14:44:58;19.17;;;13.63;;
76962;SDS011;65902;51.452;7.198;2023-08-17T14:46:04;24.20;;;15.20;;
76962;SDS011;65902;51.452;7.198;2023-08-17T14:47:13;23.55;;;14.32;;
76962;SDS011;65902;51.452;7.198;2023-08-17T14:51:19;19.30;;;12.02;;
76962;SDS011;65902;51.452;7.198;2023-08-17T14:52:24;18.38;;;13.02;;
76962;SDS011;65902;51.452;7.198;2023-08-17T14:53:37;19.00;;;13.88;;
76962;SDS011;65902;51.452;7.198;2023-08-17T14:54:50;18.50;;;13.27;;
76962;SDS011;65902;51.452;7.198;2023-08-17T14:56:24;18.92;;;13.30;;
76962;SDS011;65902;51.452;7.198;2023-08-17T14:57:38;17.95;;;14.25;;
76962;SDS011;65902;51.452;7.198;2023-08-17T14:58:47;20.10;;;13.45;;
76962;SDS011;65902;51.452;7.198;2023-08-17T15:00:00;19.33;;;11.80;;
76962;SDS011;65902;51.452;7.198;2023-08-17T15:03:57;16.77;;;10.32;;
76962;SDS011;65902;51.452;7.198;2023-08-17T15:04:59;17.85;;;11.60;;
76962;SDS011;65902;51.452;7.198;2023-08-17T15:06:03;16.13;;;11.48;;
76962;SDS011;65902;51.452;7.198;2023-08-17T15:07:45;16.17;;;10.73;;
76962;SDS011;65902;51.452;7.198;2023-08-17T15:08:50;12.60;;;9.93;;
76962;SDS011;65902;51.452;7.198;2023-08-17T15:09:56;14.70;;;10.38;;
76962;SDS011;65902;51.452;7.198;2023-08-17T15:10:56;15.68;;;11.90;;
76962;SDS011;65902;51.452;7.198;2023-08-17T15:12:06;17.35;;;11.45;;
76962;SDS011;65902;51.452;7.198;2023-08-17T15:13:21;15.27;;;10.30;;
76962;SDS011;65902;51.452;7.198;2023-08-17T15:14:26;20.33;;;10.93;;
76962;SDS011;65902;51.452;7.198;2023-08-17T15:15:33;20.70;;;10.88;;
76962;SDS011;65902;51.452;7.198;2023-08-17T15:16:40;18.38;;;10.00;;
76962;SDS011;65902;51.452;7.198;2023-08-17T15:17:51;13.52;;;9.25;;
76962;SDS011;65902;51.452;7.198;2023-08-17T15:18:51;17.60;;;10.25;;
76962;SDS011;65902;51.452;7.198;2023-08-17T15:19:57;15.77;;;10.07;;
76962;SDS011;65902;51.452;7.198;2023-08-17T15:20:58;14.00;;;10.70;;
76962;SDS011;65902;51.452;7.198;2023-08-17T15:21:58;15.02;;;10.05;;
76962;SDS011;65902;51.452;7.198;2023-08-17T15:22:59;13.35;;;9.30;;
76962;SDS011;65902;51.452;7.198;2023-08-17T15:23:59;13.50;;;10.07;;
76962;SDS011;65902;51.452;7.198;2023-08-17T15:25:00;15.40;;;10.73;;
76962;SDS011;65902;51.452;7.198;2023-08-17T15:26:00;17.80;;;10.23;;
76962;SDS011;65902;51.452;7.198;2023-08-17T15:27:01;16.60;;;10.48;;
76962;SDS011;65902;51.452;7.198;2023-08-17T15:28:01;13.25;;;10.05;;
76962;SDS011;65902;51.452;7.198;2023-08-17T15:29:02;13.35;;;9.65;;
76962;SDS011;65902;51.452;7.198;2023-08-17T15:30:02;12.85;;;9.80;;
76962;SDS011;65902;51.452;7.198;2023-08-17T15:31:03;18.00;;;12.55;;
76962;SDS011;65902;51.452;7.198;2023-08-17T15:32:09;13.80;;;10.82;;
76962;SDS011;65902;51.452;7.198;2023-08-17T15:33:10;14.25;;;10.27;;
76962;SDS011;65902;51.452;7.198;2023-08-17T15:34:11;14.57;;;10.23;;
76962;SDS011;65902;51.452;7.198;2023-08-17T15:35:11;14.27;;;10.32;;
76962;SDS011;65902;51.452;7.198;2023-08-17T15:36:14;18.02;;;11.30;;
76962;SDS011;65902;51.452;7.198;2023-08-17T15:37:18;14.77;;;10.77;;
76962;SDS011;65902;51.452;7.198;2023-08-17T15:38:18;19.35;;;11.18;;
76962;SDS011;65902;51.452;7.198;2023-08-17T15:39:20;17.40;;;11.98;;
76962;SDS011;65902;51.452;7.198;2023-08-17T15:40:21;14.35;;;11.15;;
76962;SDS011;65902;51.452;7.198;2023-08-17T15:41:21;16.70;;;11.10;;
76962;SDS011;65902;51.452;7.198;2023-08-17T15:42:22;16.08;;;12.48;;
76962;SDS011;65902;51.452;7.198;2023-08-17T15:43:23;18.00;;;11.93;;
76962;SDS011;65902;51.452;7.198;2023-08-17T15:44:23;16.85;;;11.57;;
76962;SDS011;65902;51.452;7.198;2023-08-17T15:45:24;16.83;;;12.90;;
76962;SDS011;65902;51.452;7.198;2023-08-17T15:46:24;20.05;;;12.68;;
76962;SDS011;65902;51.452;7.198;2023-08-17T15:47:25;14.98;;;11.50;;
76962;SDS011;65902;51.452;7.198;2023-08-17T15:48:25;16.35;;;10.88;;
76962;SDS011;65902;51.452;7.198;2023-08-17T15:49:26;16.70;;;11.38;;
76962;SDS011;65902;51.452;7.198;2023-08-17T15:50:26;15.25;;;10.00;;
76962;SDS011;65902;51.452;7.198;2023-08-17T15:51:26;14.98;;;11.18;;
76962;SDS011;65902;51.452;7.198;2023-08-17T15:52:28;16.83;;;11.70;;
76962;SDS011;65902;51.452;7.198;2023-08-17T15:53:28;15.18;;;10.32;;
76962;SDS011;65902;51.452;7.198;2023-08-17T15:54:29;18.40;;;11.57;;
76962;SDS011;65902;51.452;7.198;2023-08-17T15:55:29;16.48;;;10.88;;
76962;SDS011;65902;51.452;7.198;2023-08-17T15:56:30;14.48;;;10.77;;
76962;SDS011;65902;51.452;7.198;2023-08-17T15:57:30;15.88;;;11.10;;
76962;SDS011;65902;51.452;7.198;2023-08-17T15:58:31;16.13;;;11.88;;
76962;SDS011;65902;51.452;7.198;2023-08-17T15:59:31;16.48;;;11.88;;
76962;SDS011;65902;51.452;7.198;2023-08-17T17:10:19;16.53;;;10.60;;
76962;SDS011;65902;51.452;7.198;2023-08-17T17:11:23;18.65;;;10.18;;
76962;SDS011;65902;51.452;7.198;2023-08-17T17:12:24;13.35;;;10.52;;
76962;SDS011;65902;51.452;7.198;2023-08-17T17:13:24;15.85;;;9.93;;
76962;SDS011;65902;51.452;7.198;2023-08-17T17:14:25;14.90;;;10.50;;
76962;SDS011;65902;51.452;7.198;2023-08-17T17:15:26;15.85;;;11.25;;
76962;SDS011;65902;51.452;7.198;2023-08-17T17:16:27;14.63;;;10.70;;
76962;SDS011;65902;51.452;7.198;2023-08-17T17:17:27;14.65;;;11.10;;
76962;SDS011;65902;51.452;7.198;2023-08-17T17:18:27;16.05;;;10.60;;
76962;SDS011;65902;51.452;7.198;2023-08-17T17:19:28;15.98;;;10.93;;
76962;SDS011;65902;51.452;7.198;2023-08-17T17:20:28;16.23;;;10.98;;
76962;SDS011;65902;51.452;7.198;2023-08-17T17:21:31;21.13;;;10.52;;
76962;SDS011;65902;51.452;7.198;2023-08-17T17:22:32;17.90;;;10.07;;
76962;SDS011;65902;51.452;7.198;2023-08-17T17:23:32;15.63;;;10.65;;
76962;SDS011;65902;51.452;7.198;2023-08-17T17:24:33;15.27;;;10.18;;
76962;SDS011;65902;51.452;7.198;2023-08-17T17:25:33;14.55;;;10.82;;
76962;SDS011;65902;51.452;7.198;2023-08-17T17:26:34;16.55;;;10.73;;
76962;SDS011;65902;51.452;7.198;2023-08-17T17:27:36;15.35;;;10.00;;
76962;SDS011;65902;51.452;7.198;2023-08-17T17:28:37;14.63;;;11.18;;
76962;SDS011;65902;51.452;7.198;2023-08-17T17:29:37;13.75;;;10.02;;
76962;SDS011;65902;51.452;7.198;2023-08-17T17:30:38;15.98;;;10.02;;
76962;SDS011;65902;51.452;7.198;2023-08-17T17:31:39;17.05;;;9.20;;
76962;SDS011;65902;51.452;7.198;2023-08-17T17:32:39;14.52;;;9.43;;
76962;SDS011;65902;51.452;7.198;2023-08-17T17:33:40;15.65;;;9.13;;
76962;SDS011;65902;51.452;7.198;2023-08-17T17:34:40;13.13;;;8.98;;
76962;SDS011;65902;51.452;7.198;2023-08-17T17:35:41;16.00;;;8.57;;
76962;SDS011;65902;51.452;7.198;2023-08-17T17:36:42;14.65;;;9.07;;
76962;SDS011;65902;51.452;7.198;2023-08-17T17:37:42;13.00;;;8.93;;
76962;SDS011;65902;51.452;7.198;2023-08-17T17:38:43;11.55;;;8.88;;
76962;SDS011;65902;51.452;7.198;2023-08-17T17:39:43;11.15;;;8.43;;
76962;SDS011;65902;51.452;7.198;2023-08-17T17:40:44;11.75;;;8.00;;
76962;SDS011;65902;51.452;7.198;2023-08-17T17:41:44;17.27;;;8.85;;
76962;SDS011;65902;51.452;7.198;2023-08-17T17:42:45;13.65;;;8.82;;
76962;SDS011;65902;51.452;7.198;2023-08-17T17:43:46;14.07;;;8.98;;
76962;SDS011;65902;51.452;7.198;2023-08-17T17:44:46;15.80;;;8.55;;
76962;SDS011;65902;51.452;7.198;2023-08-17T17:45:47;15.52;;;8.80;;
76962;SDS011;65902;51.452;7.198;2023-08-17T17:46:49;12.98;;;9.88;;
76962;SDS011;65902;51.452;7.198;2023-08-17T17:48:04;12.18;;;8.75;;
76962;SDS011;65902;51.452;7.198;2023-08-17T17:49:05;16.10;;;9.00;;
76962;SDS011;65902;51.452;7.198;2023-08-17T17:50:06;13.50;;;9.20;;
76962;SDS011;65902;51.452;7.198;2023-08-17T17:51:06;13.70;;;9.60;;
76962;SDS011;65902;51.452;7.198;2023-08-17T17:52:07;13.60;;;9.40;;
76962;SDS011;65902;51.452;7.198;2023-08-17T17:53:08;15.55;;;9.60;;
76962;SDS011;65902;51.452;7.198;2023-08-17T17:54:09;12.15;;;9.05;;
76962;SDS011;65902;51.452;7.198;2023-08-17T17:55:11;13.90;;;9.15;;
76962;SDS011;65902;51.452;7.198;2023-08-17T17:56:11;12.70;;;8.73;;
76962;SDS011;65902;51.452;7.198;2023-08-17T17:57:14;12.73;;;9.40;;
76962;SDS011;65902;51.452;7.198;2023-08-17T17:58:15;11.27;;;8.98;;
76962;SDS011;65902;51.452;7.198;2023-08-17T17:59:15;14.95;;;9.35;;
76962;SDS011;65902;51.452;7.198;2023-08-17T18:00:16;13.30;;;10.05;;
76962;SDS011;65902;51.452;7.198;2023-08-17T18:01:17;14.20;;;9.55;;
76962;SDS011;65902;51.452;7.198;2023-08-17T18:02:23;16.10;;;9.98;;
76962;SDS011;65902;51.452;7.198;2023-08-17T18:03:23;15.38;;;9.52;;
76962;SDS011;65902;51.452;7.198;2023-08-17T18:04:24;13.50;;;10.10;;
76962;SDS011;65902;51.452;7.198;2023-08-17T18:05:28;15.63;;;11.18;;
76962;SDS011;65902;51.452;7.198;2023-08-17T18:06:28;12.43;;;9.82;;
76962;SDS011;65902;51.452;7.198;2023-08-17T18:07:29;15.13;;;9.57;;
76962;SDS011;65902;51.452;7.198;2023-08-17T18:08:29;15.77;;;11.00;;
76962;SDS011;65902;51.452;7.198;2023-08-17T18:09:33;17.48;;;11.98;;
76962;SDS011;65902;51.452;7.198;2023-08-17T18:10:38;15.65;;;11.25;;
76962;SDS011;65902;51.452;7.198;2023-08-17T18:11:39;17.92;;;10.68;;
76962;SDS011;65902;51.452;7.198;2023-08-17T18:12:39;14.82;;;10.93;;
76962;SDS011;65902;51.452;7.198;2023-08-17T18:13:40;15.45;;;11.15;;
76962;SDS011;65902;51.452;7.198;2023-08-17T18:14:40;15.30;;;10.60;;
76962;SDS011;65902;51.452;7.198;2023-08-17T18:15:41;15.93;;;11.27;;
76962;SDS011;65902;51.452;7.198;2023-08-17T18:16:42;18.45;;;11.13;;
76962;SDS011;65902;51.452;7.198;2023-08-17T18:17:43;15.38;;;10.90;;
76962;SDS011;65902;51.452;7.198;2023-08-17T18:18:46;16.70;;;11.25;;
76962;SDS011;65902;51.452;7.198;2023-08-17T18:19:46;15.27;;;11.15;;
76962;SDS011;65902;51.452;7.198;2023-08-17T18:20:47;15.77;;;11.57;;
76962;SDS011;65902;51.452;7.198;2023-08-17T18:21:48;17.80;;;11.25;;
76962;SDS011;65902;51.452;7.198;2023-08-17T18:22:48;15.75;;;11.13;;
76962;SDS011;65902;51.452;7.198;2023-08-17T18:23:49;16.50;;;10.10;;
76962;SDS011;65902;51.452;7.198;2023-08-17T18:24:49;16.08;;;12.40;;
76962;SDS011;65902;51.452;7.198;2023-08-17T18:25:52;15.20;;;10.18;;
76962;SDS011;65902;51.452;7.198;2023-08-17T18:26:53;19.75;;;11.27;;
76962;SDS011;65902;51.452;7.198;2023-08-17T18:27:53;18.13;;;11.93;;
76962;SDS011;65902;51.452;7.198;2023-08-17T18:28:54;14.35;;;10.55;;
76962;SDS011;65902;51.452;7.198;2023-08-17T18:29:55;14.18;;;9.90;;
76962;SDS011;65902;51.452;7.198;2023-08-17T18:30:56;15.02;;;10.48;;
76962;SDS011;65902;51.452;7.198;2023-08-17T18:31:57;17.05;;;11.20;;
76962;SDS011;65902;51.452;7.198;2023-08-17T18:32:57;16.92;;;11.77;;
76962;SDS011;65902;51.452;7.198;2023-08-17T18:33:58;14.45;;;10.52;;
76962;SDS011;65902;51.452;7.198;2023-08-17T18:34:58;14.05;;;10.30;;
76962;SDS011;65902;51.452;7.198;2023-08-17T18:35:59;15.80;;;10.55;;
76962;SDS011;65902;51.452;7.198;2023-08-17T18:37:00;16.40;;;10.40;;
76962;SDS011;65902;51.452;7.198;2023-08-17T18:38:02;15.85;;;11.02;;
76962;SDS011;65902;51.452;7.198;2023-08-17T18:39:03;16.63;;;10.40;;
76962;SDS011;65902;51.452;7.198;2023-08-17T18:40:04;19.48;;;11.85;;
76962;SDS011;65902;51.452;7.198;2023-08-17T18:41:08;21.08;;;13.18;;
76962;SDS011;65902;51.452;7.198;2023-08-17T18:42:09;22.95;;;13.52;;
76962;SDS011;65902;51.452;7.198;2023-08-17T18:43:09;24.50;;;12.48;;
76962;SDS011;65902;51.452;7.198;2023-08-17T18:44:10;19.85;;;12.27;;
76962;SDS011;65902;51.452;7.198;2023-08-17T18:45:10;20.58;;;12.38;;
76962;SDS011;65902;51.452;7.198;2023-08-17T18:46:11;20.65;;;12.65;;
76962;SDS011;65902;51.452;7.198;2023-08-17T18:47:12;26.08;;;12.80;;
76962;SDS011;65902;51.452;7.198;2023-08-17T18:48:12;22.58;;;13.00;;
76962;SDS011;65902;51.452;7.198;2023-08-17T18:49:13;28.52;;;13.43;;
76962;SDS011;65902;51.452;7.198;2023-08-17T18:50:13;26.17;;;13.48;;
76962;SDS011;65902;51.452;7.198;2023-08-17T18:51:15;26.52;;;12.43;;
76962;SDS011;65902;51.452;7.198;2023-08-17T18:52:15;24.02;;;12.88;;
76962;SDS011;65902;51.452;7.198;2023-08-17T18:53:16;24.45;;;13.05;;
76962;SDS011;65902;51.452;7.198;2023-08-17T18:54:16;22.75;;;13.40;;
76962;SDS011;65902;51.452;7.198;2023-08-17T18:55:17;17.08;;;11.27;;
76962;SDS011;65902;51.452;7.198;2023-08-17T18:56:18;17.60;;;12.25;;
76962;SDS011;65902;51.452;7.198;2023-08-17T18:57:18;18.80;;;11.60;;
76962;SDS011;65902;51.452;7.198;2023-08-17T18:58:18;17.02;;;12.13;;
76962;SDS011;65902;51.452;7.198;2023-08-17T18:59:20;17.17;;;11.27;;
76962;SDS011;65902;51.452;7.198;2023-08-17T19:00:20;15.30;;;10.80;;
76962;SDS011;65902;51.452;7.198;2023-08-17T19:01:21;18.02;;;11.98;;
76962;SDS011;65902;51.452;7.198;2023-08-17T19:02:22;16.10;;;11.27;;
76962;SDS011;65902;51.452;7.198;2023-08-17T19:03:22;17.95;;;12.55;;
76962;SDS011;65902;51.452;7.198;2023-08-17T19:04:23;18.63;;;11.90;;
76962;SDS011;65902;51.452;7.198;2023-08-17T19:05:23;16.83;;;11.55;;
76962;SDS011;65902;51.452;7.198;2023-08-17T19:06:24;18.33;;;11.57;;
76962;SDS011;65902;51.452;7.198;2023-08-17T19:07:25;19.33;;;13.25;;
76962;SDS011;65902;51.452;7.198;2023-08-17T19:08:26;19.52;;;11.70;;
76962;SDS011;65902;51.452;7.198;2023-08-17T19:09:27;18.85;;;13.90;;
76962;SDS011;65902;51.452;7.198;2023-08-17T19:10:27;21.02;;;12.55;;
76962;SDS011;65902;51.452;7.198;2023-08-17T19:11:28;18.40;;;12.85;;
76962;SDS011;65902;51.452;7.198;2023-08-17T19:12:28;17.45;;;13.00;;
76962;SDS011;65902;51.452;7.198;2023-08-17T19:13:29;20.20;;;14.07;;
76962;SDS011;65902;51.452;7.198;2023-08-17T19:14:30;20.48;;;12.88;;
76962;SDS011;65902;51.452;7.198;2023-08-17T19:15:30;19.77;;;14.18;;
76962;SDS011;65902;51.452;7.198;2023-08-17T19:16:31;18.90;;;13.02;;
76962;SDS011;65902;51.452;7.198;2023-08-17T19:17:31;16.40;;;12.63;;
76962;SDS011;65902;51.452;7.198;2023-08-17T19:18:32;19.13;;;14.82;;
76962;SDS011;65902;51.452;7.198;2023-08-17T19:19:33;18.77;;;12.85;;
76962;SDS011;65902;51.452;7.198;2023-08-17T19:20:33;18.80;;;12.85;;
76962;SDS011;65902;51.452;7.198;2023-08-17T19:21:35;17.67;;;12.50;;
76962;SDS011;65902;51.452;7.198;2023-08-17T19:22:36;18.02;;;13.05;;
76962;SDS011;65902;51.452;7.198;2023-08-17T19:23:37;18.70;;;12.90;;
76962;SDS011;65902;51.452;7.198;2023-08-17T19:24:38;17.65;;;13.00;;
76962;SDS011;65902;51.452;7.198;2023-08-17T19:25:39;18.92;;;13.18;;
76962;SDS011;65902;51.452;7.198;2023-08-17T19:26:39;19.70;;;13.90;;
76962;SDS011;65902;51.452;7.198;2023-08-17T19:27:39;22.13;;;13.82;;
76962;SDS011;65902;51.452;7.198;2023-08-17T19:28:40;18.75;;;12.18;;
76962;SDS011;65902;51.452;7.198;2023-08-17T19:29:41;19.92;;;14.00;;
76962;SDS011;65902;51.452;7.198;2023-08-17T19:30:41;16.73;;;12.27;;
76962;SDS011;65902;51.452;7.198;2023-08-17T19:31:42;20.23;;;13.52;;
76962;SDS011;65902;51.452;7.198;2023-08-17T19:32:42;20.83;;;13.02;;
76962;SDS011;65902;51.452;7.198;2023-08-17T19:33:43;18.05;;;13.13;;
76962;SDS011;65902;51.452;7.198;2023-08-17T19:34:44;18.60;;;12.30;;
76962;SDS011;65902;51.452;7.198;2023-08-17T19:35:44;17.98;;;13.35;;
76962;SDS011;65902;51.452;7.198;2023-08-17T19:36:45;18.25;;;13.95;;
76962;SDS011;65902;51.452;7.198;2023-08-17T19:37:45;18.80;;;12.48;;
76962;SDS011;65902;51.452;7.198;2023-08-17T19:38:47;18.42;;;12.38;;
76962;SDS011;65902;51.452;7.198;2023-08-17T19:39:47;16.92;;;12.20;;
76962;SDS011;65902;51.452;7.198;2023-08-17T19:40:48;20.48;;;13.13;;
76962;SDS011;65902;51.452;7.198;2023-08-17T19:41:48;16.58;;;11.90;;
76962;SDS011;65902;51.452;7.198;2023-08-17T19:42:49;17.40;;;12.32;;
76962;SDS011;65902;51.452;7.198;2023-08-17T19:43:50;18.58;;;13.38;;
76962;SDS011;65902;51.452;7.198;2023-08-17T19:44:50;22.35;;;14.82;;
76962;SDS011;65902;51.452;7.198;2023-08-17T19:45:50;19.15;;;12.50;;
76962;SDS011;65902;51.452;7.198;2023-08-17T19:46:51;19.30;;;13.50;;
76962;SDS011;65902;51.452;7.198;2023-08-17T19:47:52;20.80;;;13.70;;
76962;SDS011;65902;51.452;7.198;2023-08-17T19:48:53;19.02;;;14.40;;
76962;SDS011;65902;51.452;7.198;2023-08-17T19:49:54;21.67;;;12.82;;
76962;SDS011;65902;51.452;7.198;2023-08-17T19:50:55;18.17;;;13.10;;
76962;SDS011;65902;51.452;7.198;2023-08-17T19:51:55;17.80;;;12.18;;
76962;SDS011;65902;51.452;7.198;2023-08-17T19:52:56;18.83;;;12.98;;
76962;SDS011;65902;51.452;7.198;2023-08-17T19:53:56;19.23;;;12.73;;
76962;SDS011;65902;51.452;7.198;2023-08-17T19:54:57;16.98;;;12.15;;
76962;SDS011;65902;51.452;7.198;2023-08-17T19:55:58;17.02;;;12.30;;
76962;SDS011;65902;51.452;7.198;2023-08-17T19:56:58;17.77;;;12.13;;
76962;SDS011;65902;51.452;7.198;2023-08-17T19:57:59;22.85;;;13.63;;
76962;SDS011;65902;51.452;7.198;2023-08-17T19:59:00;15.25;;;12.30;;
76962;SDS011;65902;51.452;7.198;2023-08-17T20:00:00;18.35;;;13.25;;
76962;SDS011;65902;51.452;7.198;2023-08-17T20:01:05;16.35;;;13.18;;
76962;SDS011;65902;51.452;7.198;2023-08-17T20:02:07;19.73;;;13.80;;
76962;SDS011;65902;51.452;7.198;2023-08-17T20:03:08;19.05;;;14.05;;
76962;SDS011;65902;51.452;7.198;2023-08-17T20:04:08;21.15;;;14.07;;
76962;SDS011;65902;51.452;7.198;2023-08-17T20:05:11;16.80;;;13.43;;
76962;SDS011;65902;51.452;7.198;2023-08-17T20:06:11;20.98;;;14.15;;
76962;SDS011;65902;51.452;7.198;2023-08-17T20:07:12;21.13;;;13.63;;
76962;SDS011;65902;51.452;7.198;2023-08-17T20:08:13;16.92;;;12.60;;
76962;SDS011;65902;51.452;7.198;2023-08-17T20:09:13;20.52;;;14.38;;
76962;SDS011;65902;51.452;7.198;2023-08-17T20:10:14;23.00;;;14.68;;
76962;SDS011;65902;51.452;7.198;2023-08-17T20:11:14;21.08;;;15.30;;
76962;SDS011;65902;51.452;7.198;2023-08-17T20:12:16;22.33;;;13.57;;
76962;SDS011;65902;51.452;7.198;2023-08-17T20:13:17;21.05;;;15.63;;
76962;SDS011;65902;51.452;7.198;2023-08-17T20:14:17;20.75;;;14.43;;
76962;SDS011;65902;51.452;7.198;2023-08-17T20:15:17;21.00;;;13.68;;
76962;SDS011;65902;51.452;7.198;2023-08-17T20:16:21;22.52;;;14.95;;
76962;SDS011;65902;51.452;7.198;2023-08-17T20:17:21;18.67;;;13.65;;
76962;SDS011;65902;51.452;7.198;2023-08-17T20:18:22;18.50;;;14.45;;
76962;SDS011;65902;51.452;7.198;2023-08-17T20:19:23;24.92;;;13.82;;
76962;SDS011;65902;51.452;7.198;2023-08-17T20:20:23;20.58;;;13.90;;
76962;SDS011;65902;51.452;7.198;2023-08-17T20:21:24;20.77;;;14.07;;
76962;SDS011;65902;51.452;7.198;2023-08-17T20:22:24;20.05;;;13.93;;
76962;SDS011;65902;51.452;7.198;2023-08-17T20:23:25;19.20;;;12.45;;
76962;SDS011;65902;51.452;7.198;2023-08-17T20:24:26;18.83;;;13.93;;
76962;SDS011;65902;51.452;7.198;2023-08-17T20:25:27;19.60;;;12.40;;
76962;SDS011;65902;51.452;7.198;2023-08-17T20:26:29;18.38;;;13.38;;
76962;SDS011;65902;51.452;7.198;2023-08-17T20:27:29;20.00;;;13.02;;
76962;SDS011;65902;51.452;7.198;2023-08-17T20:28:30;18.67;;;13.73;;
76962;SDS011;65902;51.452;7.198;2023-08-17T20:29:31;21.00;;;13.73;;
76962;SDS011;65902;51.452;7.198;2023-08-17T20:30:31;20.25;;;12.27;;
76962;SDS011;65902;51.452;7.198;2023-08-17T20:31:32;18.48;;;12.70;;
76962;SDS011;65902;51.452;7.198;2023-08-17T20:32:32;18.88;;;13.40;;
76962;SDS011;65902;51.452;7.198;2023-08-17T20:33:32;18.85;;;13.50;;
76962;SDS011;65902;51.452;7.198;2023-08-17T20:34:33;20.20;;;12.70;;
76962;SDS011;65902;51.452;7.198;2023-08-17T20:35:35;23.40;;;14.60;;
76962;SDS011;65902;51.452;7.198;2023-08-17T20:36:35;18.10;;;12.55;;
76962;SDS011;65902;51.452;7.198;2023-08-17T20:37:36;19.25;;;13.15;;
76962;SDS011;65902;51.452;7.198;2023-08-17T20:38:36;18.67;;;12.88;;
76962;SDS011;65902;51.452;7.198;2023-08-17T20:39:37;18.77;;;13.07;;
76962;SDS011;65902;51.452;7.198;2023-08-17T20:40:39;20.40;;;13.20;;
76962;SDS011;65902;51.452;7.198;2023-08-17T20:41:39;20.08;;;13.68;;
76962;SDS011;65902;51.452;7.198;2023-08-17T20:42:40;20.25;;;12.77;;
76962;SDS011;65902;51.452;7.198;2023-08-17T20:43:40;18.77;;;12.32;;
76962;SDS011;65902;51.452;7.198;2023-08-17T20:44:41;17.48;;;10.93;;
76962;SDS011;65902;51.452;7.198;2023-08-17T20:45:42;22.00;;;14.38;;
76962;SDS011;65902;51.452;7.198;2023-08-17T20:46:43;22.02;;;13.30;;
76962;SDS011;65902;51.452;7.198;2023-08-17T20:47:43;21.77;;;12.80;;
76962;SDS011;65902;51.452;7.198;2023-08-17T20:48:44;16.67;;;12.23;;
76962;SDS011;65902;51.452;7.198;2023-08-17T20:49:44;22.35;;;13.32;;
76962;SDS011;65902;51.452;7.198;2023-08-17T20:50:45;18.85;;;12.68;;
76962;SDS011;65902;51.452;7.198;2023-08-17T20:51:45;16.15;;;11.98;;
76962;SDS011;65902;51.452;7.198;2023-08-17T20:52:50;19.73;;;12.68;;
76962;SDS011;65902;51.452;7.198;2023-08-17T20:53:51;20.50;;;12.57;;
76962;SDS011;65902;51.452;7.198;2023-08-17T20:54:54;20.45;;;12.50;;
76962;SDS011;65902;51.452;7.198;2023-08-17T20:55:55;17.17;;;12.18;;
76962;SDS011;65902;51.452;7.198;2023-08-17T20:56:55;18.75;;;12.25;;
76962;SDS011;65902;51.452;7.198;2023-08-17T20:58:59;20.00;;;12.48;;
76962;SDS011;65902;51.452;7.198;2023-08-17T20:59:59;19.90;;;11.90;;
76962;SDS011;65902;51.452;7.198;2023-08-17T21:01:00;20.58;;;12.65;;
76962;SDS011;65902;51.452;7.198;2023-08-17T21:02:00;17.55;;;12.35;;
76962;SDS011;65902;51.452;7.198;2023-08-17T21:03:02;16.65;;;10.23;;
76962;SDS011;65902;51.452;7.198;2023-08-17T21:04:03;16.88;;;11.57;;
76962;SDS011;65902;51.452;7.198;2023-08-17T21:05:04;18.77;;;11.90;;
76962;SDS011;65902;51.452;7.198;2023-08-17T21:06:05;15.07;;;10.73;;
76962;SDS011;65902;51.452;7.198;2023-08-17T21:07:05;17.38;;;11.68;;
76962;SDS011;65902;51.452;7.198;2023-08-17T21:08:07;20.73;;;10.77;;
76962;SDS011;65902;51.452;7.198;2023-08-17T21:09:08;15.13;;;9.82;;
76962;SDS011;65902;51.452;7.198;2023-08-17T21:10:09;17.10;;;10.82;;
76962;SDS011;65902;51.452;7.198;2023-08-17T21:11:10;17.50;;;12.23;;
76962;SDS011;65902;51.452;7.198;2023-08-17T21:12:11;18.83;;;11.38;;
76962;SDS011;65902;51.452;7.198;2023-08-17T21:13:11;18.33;;;11.48;;
76962;SDS011;65902;51.452;7.198;2023-08-17T21:14:11;17.52;;;12.07;;
76962;SDS011;65902;51.452;7.198;2023-08-17T21:15:12;18.17;;;10.90;;
76962;SDS011;65902;51.452;7.198;2023-08-17T21:16:13;18.55;;;11.85;;
76962;SDS011;65902;51.452;7.198;2023-08-17T21:17:14;18.15;;;10.43;;
76962;SDS011;65902;51.452;7.198;2023-08-17T21:18:15;17.70;;;10.48;;
76962;SDS011;65902;51.452;7.198;2023-08-17T21:19:16;17.45;;;11.75;;
76962;SDS011;65902;51.452;7.198;2023-08-17T21:20:16;20.00;;;12.27;;
76962;SDS011;65902;51.452;7.198;2023-08-17T21:21:17;16.83;;;11.02;;
76962;SDS011;65902;51.452;7.198;2023-08-17T21:22:17;15.57;;;10.60;;
76962;SDS011;65902;51.452;7.198;2023-08-17T21:23:18;20.00;;;10.73;;
76962;SDS011;65902;51.452;7.198;2023-08-17T21:24:18;18.13;;;10.52;;
76962;SDS011;65902;51.452;7.198;2023-08-17T21:25:18;18.13;;;11.25;;
76962;SDS011;65902;51.452;7.198;2023-08-17T21:26:19;17.75;;;11.15;;
76962;SDS011;65902;51.452;7.198;2023-08-17T21:27:19;17.08;;;10.05;;
76962;SDS011;65902;51.452;7.198;2023-08-17T21:28:20;17.80;;;10.80;;
76962;SDS011;65902;51.452;7.198;2023-08-17T21:29:20;19.48;;;12.10;;
76962;SDS011;65902;51.452;7.198;2023-08-17T21:30:21;18.27;;;11.52;;
76962;SDS011;65902;51.452;7.198;2023-08-17T21:31:24;16.05;;;10.25;;
76962;SDS011;65902;51.452;7.198;2023-08-17T21:32:25;15.70;;;10.82;;
76962;SDS011;65902;51.452;7.198;2023-08-17T21:33:26;16.77;;;11.38;;
76962;SDS011;65902;51.452;7.198;2023-08-17T21:34:27;15.77;;;9.93;;
76962;SDS011;65902;51.452;7.198;2023-08-17T21:35:28;14.02;;;10.07;;
76962;SDS011;65902;51.452;7.198;2023-08-17T21:36:29;13.35;;;11.20;;
76962;SDS011;65902;51.452;7.198;2023-08-17T21:37:29;13.55;;;10.13;;
76962;SDS011;65902;51.452;7.198;2023-08-17T21:38:30;15.10;;;9.57;;
76962;SDS011;65902;51.452;7.198;2023-08-17T21:39:31;14.25;;;10.10;;
76962;SDS011;65902;51.452;7.198;2023-08-17T21:40:32;13.40;;;9.90;;
76962;SDS011;65902;51.452;7.198;2023-08-17T21:41:33;14.05;;;9.98;;
76962;SDS011;65902;51.452;7.198;2023-08-17T21:42:33;15.65;;;9.77;;
76962;SDS011;65902;51.452;7.198;2023-08-17T21:43:34;18.38;;;10.18;;
76962;SDS011;65902;51.452;7.198;2023-08-17T21:44:34;17.27;;;10.10;;
76962;SDS011;65902;51.452;7.198;2023-08-17T21:45:34;13.90;;;10.52;;
76962;SDS011;65902;51.452;7.198;2023-08-17T21:46:35;17.98;;;9.38;;
76962;SDS011;65902;51.452;7.198;2023-08-17T21:47:36;15.65;;;8.98;;
76962;SDS011;65902;51.452;7.198;2023-08-17T21:48:37;15.40;;;10.60;;
76962;SDS011;65902;51.452;7.198;2023-08-17T21:49:37;15.02;;;9.23;;
76962;SDS011;65902;51.452;7.198;2023-08-17T21:50:38;14.45;;;10.23;;
76962;SDS011;65902;51.452;7.198;2023-08-17T21:51:38;18.15;;;10.63;;
76962;SDS011;65902;51.452;7.198;2023-08-17T21:52:39;14.32;;;9.75;;
76962;SDS011;65902;51.452;7.198;2023-08-17T21:53:39;15.82;;;10.52;;
76962;SDS011;65902;51.452;7.198;2023-08-17T21:54:40;15.82;;;9.38;;
76962;SDS011;65902;51.452;7.198;2023-08-17T21:55:47;13.55;;;9.30;;
76962;SDS011;65902;51.452;7.198;2023-08-17T21:56:48;16.42;;;11.30;;
76962;SDS011;65902;51.452;7.198;2023-08-17T21:57:49;16.02;;;9.20;;
76962;SDS011;65902;51.452;7.198;2023-08-17T21:58:49;14.45;;;9.68;;
76962;SDS011;65902;51.452;7.198;2023-08-17T21:59:50;13.65;;;8.80;;
76962;SDS011;65902;51.452;7.198;2023-08-17T22:00:51;17.13;;;9.88;;